sensor_id;sensor_type;location;lat;lon;timestamp;P1;durP1;ratioP1;P2;durP2;ratioP2
6205;SDS011;3136;48.788;9.772;2023-05-10T00:00:13;3.53;;;3.20;;
6205;SDS011;3136;48.788;9.772;2023-05-10T00:02:39;3.60;;;3.00;;
6205;SDS011;3136;48.788;9.772;2023-05-10T00:05:05;5.90;;;3.10;;
6205;SDS011;3136;48.788;9.772;2023-05-10T00:07:31;4.20;;;2.80;;
6205;SDS011;3136;48.788;9.772;2023-05-10T00:09:57;4.17;;;3.07;;
6205;SDS011;3136;48.788;9.772;2023-05-10T00:12:23;3.83;;;3.07;;
6205;SDS011;3136;48.788;9.772;2023-05-10T00:14:48;5.10;;;3.13;;
6205;SDS011;3136;48.788;9.772;2023-05-10T00:17:14;4.30;;;3.00;;
6205;SDS011;3136;48.788;9.772;2023-05-10T00:19:39;4.67;;;3.20;;
6205;SDS011;3136;48.788;9.772;2023-05-10T00:22:05;4.87;;;3.17;;
6205;SDS011;3136;48.788;9.772;2023-05-10T00:24:30;3.97;;;3.10;;
6205;SDS011;3136;48.788;9.772;2023-05-10T00:26:56;5.40;;;3.20;;
6205;SDS011;3136;48.788;9.772;2023-05-10T00:29:22;2.73;;;2.50;;
6205;SDS011;3136;48.788;9.772;2023-05-10T00:31:47;2.50;;;2.30;;
6205;SDS011;3136;48.788;9.772;2023-05-10T00:34:13;2.13;;;1.93;;
6205;SDS011;3136;48.788;9.772;2023-05-10T00:36:38;2.87;;;2.00;;
6205;SDS011;3136;48.788;9.772;2023-05-10T00:39:04;4.30;;;1.87;;
6205;SDS011;3136;48.788;9.772;2023-05-10T00:41:29;2.37;;;1.60;;
6205;SDS011;3136;48.788;9.772;2023-05-10T00:43:58;2.97;;;1.90;;
6205;SDS011;3136;48.788;9.772;2023-05-10T00:46:24;1.90;;;1.70;;
6205;SDS011;3136;48.788;9.772;2023-05-10T00:48:50;3.10;;;1.60;;
6205;SDS011;3136;48.788;9.772;2023-05-10T00:51:16;5.30;;;1.60;;
6205;SDS011;3136;48.788;9.772;2023-05-10T00:53:43;2.70;;;1.70;;
6205;SDS011;3136;48.788;9.772;2023-05-10T00:56:10;2.00;;;1.60;;
6205;SDS011;3136;48.788;9.772;2023-05-10T00:58:36;1.97;;;1.77;;
6205;SDS011;3136;48.788;9.772;2023-05-10T01:01:01;1.53;;;1.43;;
6205;SDS011;3136;48.788;9.772;2023-05-10T01:03:27;1.90;;;1.40;;
6205;SDS011;3136;48.788;9.772;2023-05-10T01:05:53;1.40;;;1.30;;
6205;SDS011;3136;48.788;9.772;2023-05-10T01:08:20;1.20;;;1.10;;
6205;SDS011;3136;48.788;9.772;2023-05-10T01:10:46;2.47;;;0.90;;
6205;SDS011;3136;48.788;9.772;2023-05-10T01:13:14;4.70;;;1.10;;
6205;SDS011;3136;48.788;9.772;2023-05-10T01:15:52;1.80;;;0.70;;
6205;SDS011;3136;48.788;9.772;2023-05-10T01:18:18;7.93;;;1.43;;
6205;SDS011;3136;48.788;9.772;2023-05-10T01:20:46;2.50;;;0.80;;
6205;SDS011;3136;48.788;9.772;2023-05-10T01:23:28;4.50;;;0.93;;
6205;SDS011;3136;48.788;9.772;2023-05-10T01:26:30;2.63;;;0.97;;
6205;SDS011;3136;48.788;9.772;2023-05-10T01:29:32;1.47;;;0.80;;
6205;SDS011;3136;48.788;9.772;2023-05-10T01:32:20;0.60;;;0.60;;
6205;SDS011;3136;48.788;9.772;2023-05-10T01:34:57;1.00;;;0.80;;
6205;SDS011;3136;48.788;9.772;2023-05-10T01:37:33;2.30;;;0.70;;
6205;SDS011;3136;48.788;9.772;2023-05-10T01:42:51;1.40;;;0.77;;
6205;SDS011;3136;48.788;9.772;2023-05-10T01:50:33;1.13;;;0.50;;
6205;SDS011;3136;48.788;9.772;2023-05-10T01:53:01;3.60;;;0.50;;
6205;SDS011;3136;48.788;9.772;2023-05-10T01:55:29;1.23;;;0.33;;
6205;SDS011;3136;48.788;9.772;2023-05-10T01:58:08;2.10;;;0.50;;
6205;SDS011;3136;48.788;9.772;2023-05-10T02:00:35;0.37;;;0.37;;
6205;SDS011;3136;48.788;9.772;2023-05-10T02:03:05;1.80;;;0.50;;
6205;SDS011;3136;48.788;9.772;2023-05-10T02:05:32;0.40;;;0.40;;
6205;SDS011;3136;48.788;9.772;2023-05-10T02:07:59;1.97;;;0.57;;
6205;SDS011;3136;48.788;9.772;2023-05-10T02:10:27;0.40;;;0.40;;
6205;SDS011;3136;48.788;9.772;2023-05-10T02:12:53;11.63;;;0.80;;
6205;SDS011;3136;48.788;9.772;2023-05-10T02:15:22;0.70;;;0.70;;
6205;SDS011;3136;48.788;9.772;2023-05-10T02:17:49;4.93;;;0.80;;
6205;SDS011;3136;48.788;9.772;2023-05-10T02:20:16;1.00;;;0.80;;
6205;SDS011;3136;48.788;9.772;2023-05-10T02:22:44;0.80;;;0.80;;
6205;SDS011;3136;48.788;9.772;2023-05-10T02:25:12;0.80;;;0.80;;
6205;SDS011;3136;48.788;9.772;2023-05-10T02:27:39;5.37;;;0.90;;
6205;SDS011;3136;48.788;9.772;2023-05-10T02:30:08;3.00;;;0.93;;
6205;SDS011;3136;48.788;9.772;2023-05-10T02:32:35;0.90;;;0.90;;
6205;SDS011;3136;48.788;9.772;2023-05-10T02:35:01;1.27;;;1.27;;
6205;SDS011;3136;48.788;9.772;2023-05-10T02:37:28;1.73;;;1.20;;
6205;SDS011;3136;48.788;9.772;2023-05-10T02:39:55;1.00;;;1.00;;
6205;SDS011;3136;48.788;9.772;2023-05-10T02:42:26;1.10;;;1.10;;
6205;SDS011;3136;48.788;9.772;2023-05-10T02:44:53;1.30;;;1.20;;
6205;SDS011;3136;48.788;9.772;2023-05-10T02:47:24;1.10;;;1.00;;
6205;SDS011;3136;48.788;9.772;2023-05-10T02:49:49;1.40;;;1.23;;
6205;SDS011;3136;48.788;9.772;2023-05-10T02:52:19;1.77;;;1.30;;
6205;SDS011;3136;48.788;9.772;2023-05-10T02:54:55;0.90;;;0.90;;
6205;SDS011;3136;48.788;9.772;2023-05-10T02:57:26;4.20;;;1.20;;
6205;SDS011;3136;48.788;9.772;2023-05-10T02:59:54;1.23;;;1.17;;
6205;SDS011;3136;48.788;9.772;2023-05-10T03:02:20;2.17;;;1.40;;
6205;SDS011;3136;48.788;9.772;2023-05-10T03:04:46;2.03;;;1.30;;
6205;SDS011;3136;48.788;9.772;2023-05-10T03:07:11;2.37;;;1.23;;
6205;SDS011;3136;48.788;9.772;2023-05-10T03:09:38;1.53;;;1.43;;
6205;SDS011;3136;48.788;9.772;2023-05-10T03:17:24;1.50;;;1.40;;
6205;SDS011;3136;48.788;9.772;2023-05-10T03:19:57;2.30;;;1.50;;
6205;SDS011;3136;48.788;9.772;2023-05-10T03:22:32;2.40;;;1.40;;
6205;SDS011;3136;48.788;9.772;2023-05-10T03:25:03;1.80;;;1.33;;
6205;SDS011;3136;48.788;9.772;2023-05-10T03:27:31;2.27;;;1.40;;
6205;SDS011;3136;48.788;9.772;2023-05-10T03:29:57;2.03;;;1.63;;
6205;SDS011;3136;48.788;9.772;2023-05-10T03:32:23;1.80;;;1.50;;
6205;SDS011;3136;48.788;9.772;2023-05-10T03:34:49;1.53;;;1.43;;
6205;SDS011;3136;48.788;9.772;2023-05-10T03:37:14;3.07;;;1.50;;
6205;SDS011;3136;48.788;9.772;2023-05-10T03:39:40;3.80;;;1.40;;
6205;SDS011;3136;48.788;9.772;2023-05-10T03:42:06;1.53;;;1.43;;
6205;SDS011;3136;48.788;9.772;2023-05-10T03:44:31;3.47;;;1.30;;
6205;SDS011;3136;48.788;9.772;2023-05-10T03:46:58;4.43;;;1.37;;
6205;SDS011;3136;48.788;9.772;2023-05-10T03:49:24;1.37;;;1.27;;
6205;SDS011;3136;48.788;9.772;2023-05-10T03:51:49;4.60;;;1.67;;
6205;SDS011;3136;48.788;9.772;2023-05-10T03:54:15;4.73;;;1.60;;
6205;SDS011;3136;48.788;9.772;2023-05-10T03:56:40;1.70;;;1.60;;
6205;SDS011;3136;48.788;9.772;2023-05-10T03:59:06;6.13;;;1.70;;
6205;SDS011;3136;48.788;9.772;2023-05-10T04:01:33;3.10;;;1.57;;
6205;SDS011;3136;48.788;9.772;2023-05-10T04:03:59;2.37;;;1.40;;
6205;SDS011;3136;48.788;9.772;2023-05-10T04:06:25;3.77;;;1.60;;
6205;SDS011;3136;48.788;9.772;2023-05-10T04:08:50;1.40;;;1.30;;
6205;SDS011;3136;48.788;9.772;2023-05-10T04:11:16;1.50;;;1.40;;
6205;SDS011;3136;48.788;9.772;2023-05-10T04:13:41;3.00;;;1.60;;
6205;SDS011;3136;48.788;9.772;2023-05-10T04:16:08;2.97;;;1.50;;
6205;SDS011;3136;48.788;9.772;2023-05-10T04:18:33;2.43;;;1.40;;
6205;SDS011;3136;48.788;9.772;2023-05-10T04:20:59;1.63;;;1.53;;
6205;SDS011;3136;48.788;9.772;2023-05-10T04:23:25;3.47;;;1.90;;
6205;SDS011;3136;48.788;9.772;2023-05-10T04:25:52;2.00;;;1.80;;
6205;SDS011;3136;48.788;9.772;2023-05-10T04:28:17;3.47;;;1.70;;
6205;SDS011;3136;48.788;9.772;2023-05-10T04:30:43;3.50;;;1.50;;
6205;SDS011;3136;48.788;9.772;2023-05-10T04:33:08;2.33;;;1.70;;
6205;SDS011;3136;48.788;9.772;2023-05-10T04:35:34;3.57;;;1.57;;
6205;SDS011;3136;48.788;9.772;2023-05-10T04:38:00;1.47;;;1.37;;
6205;SDS011;3136;48.788;9.772;2023-05-10T04:40:25;2.60;;;1.40;;
6205;SDS011;3136;48.788;9.772;2023-05-10T04:42:51;2.57;;;1.30;;
6205;SDS011;3136;48.788;9.772;2023-05-10T04:45:17;3.17;;;1.40;;
6205;SDS011;3136;48.788;9.772;2023-05-10T04:47:42;1.40;;;1.20;;
6205;SDS011;3136;48.788;9.772;2023-05-10T04:50:08;1.83;;;1.40;;
6205;SDS011;3136;48.788;9.772;2023-05-10T04:52:34;2.83;;;1.60;;
6205;SDS011;3136;48.788;9.772;2023-05-10T04:54:59;2.10;;;1.30;;
6205;SDS011;3136;48.788;9.772;2023-05-10T04:57:25;2.30;;;1.40;;
6205;SDS011;3136;48.788;9.772;2023-05-10T04:59:50;3.70;;;1.50;;
6205;SDS011;3136;48.788;9.772;2023-05-10T05:02:16;2.43;;;1.33;;
6205;SDS011;3136;48.788;9.772;2023-05-10T05:04:41;1.33;;;1.20;;
6205;SDS011;3136;48.788;9.772;2023-05-10T05:07:07;3.87;;;1.57;;
6205;SDS011;3136;48.788;9.772;2023-05-10T05:09:32;1.27;;;1.00;;
6205;SDS011;3136;48.788;9.772;2023-05-10T05:11:58;4.80;;;0.90;;
6205;SDS011;3136;48.788;9.772;2023-05-10T05:14:24;1.50;;;0.93;;
6205;SDS011;3136;48.788;9.772;2023-05-10T05:16:50;1.17;;;1.03;;
6205;SDS011;3136;48.788;9.772;2023-05-10T05:19:16;1.20;;;1.00;;
6205;SDS011;3136;48.788;9.772;2023-05-10T05:21:42;2.20;;;1.10;;
6205;SDS011;3136;48.788;9.772;2023-05-10T05:24:08;1.03;;;1.00;;
6205;SDS011;3136;48.788;9.772;2023-05-10T05:26:35;1.43;;;0.90;;
6205;SDS011;3136;48.788;9.772;2023-05-10T05:29:00;1.77;;;0.90;;
6205;SDS011;3136;48.788;9.772;2023-05-10T05:31:26;2.17;;;1.00;;
6205;SDS011;3136;48.788;9.772;2023-05-10T05:33:51;2.23;;;1.10;;
6205;SDS011;3136;48.788;9.772;2023-05-10T05:36:17;1.27;;;1.00;;
6205;SDS011;3136;48.788;9.772;2023-05-10T05:38:43;1.80;;;1.13;;
6205;SDS011;3136;48.788;9.772;2023-05-10T05:41:08;1.70;;;1.10;;
6205;SDS011;3136;48.788;9.772;2023-05-10T05:43:34;2.20;;;1.20;;
6205;SDS011;3136;48.788;9.772;2023-05-10T05:45:59;2.27;;;1.10;;
6205;SDS011;3136;48.788;9.772;2023-05-10T05:48:25;1.83;;;1.20;;
6205;SDS011;3136;48.788;9.772;2023-05-10T05:50:54;1.27;;;1.00;;
6205;SDS011;3136;48.788;9.772;2023-05-10T05:53:21;1.00;;;1.00;;
6205;SDS011;3136;48.788;9.772;2023-05-10T05:58:19;1.53;;;1.00;;
6205;SDS011;3136;48.788;9.772;2023-05-10T06:00:46;1.27;;;1.10;;
6205;SDS011;3136;48.788;9.772;2023-05-10T06:03:11;1.90;;;1.10;;
6205;SDS011;3136;48.788;9.772;2023-05-10T06:05:37;1.80;;;1.07;;
6205;SDS011;3136;48.788;9.772;2023-05-10T06:08:02;1.10;;;1.10;;
6205;SDS011;3136;48.788;9.772;2023-05-10T06:10:28;2.73;;;1.10;;
6205;SDS011;3136;48.788;9.772;2023-05-10T06:12:55;1.53;;;1.07;;
6205;SDS011;3136;48.788;9.772;2023-05-10T06:15:21;1.67;;;1.00;;
6205;SDS011;3136;48.788;9.772;2023-05-10T06:17:46;2.60;;;1.03;;
6205;SDS011;3136;48.788;9.772;2023-05-10T06:20:14;1.53;;;1.00;;
6205;SDS011;3136;48.788;9.772;2023-05-10T06:22:40;2.10;;;1.40;;
6205;SDS011;3136;48.788;9.772;2023-05-10T06:25:06;4.37;;;1.10;;
6205;SDS011;3136;48.788;9.772;2023-05-10T06:27:32;2.77;;;1.40;;
6205;SDS011;3136;48.788;9.772;2023-05-10T06:29:57;1.43;;;1.00;;
6205;SDS011;3136;48.788;9.772;2023-05-10T06:32:23;2.60;;;1.20;;
6205;SDS011;3136;48.788;9.772;2023-05-10T06:34:49;1.97;;;1.20;;
6205;SDS011;3136;48.788;9.772;2023-05-10T06:37:14;4.77;;;1.07;;
6205;SDS011;3136;48.788;9.772;2023-05-10T06:39:40;1.43;;;1.00;;
6205;SDS011;3136;48.788;9.772;2023-05-10T06:42:05;2.83;;;1.07;;
6205;SDS011;3136;48.788;9.772;2023-05-10T06:44:31;1.70;;;1.20;;
6205;SDS011;3136;48.788;9.772;2023-05-10T06:46:56;2.43;;;1.17;;
6205;SDS011;3136;48.788;9.772;2023-05-10T06:49:22;1.23;;;1.00;;
6205;SDS011;3136;48.788;9.772;2023-05-10T06:51:47;1.23;;;1.00;;
6205;SDS011;3136;48.788;9.772;2023-05-10T06:54:13;2.37;;;1.07;;
6205;SDS011;3136;48.788;9.772;2023-05-10T06:56:39;1.20;;;1.00;;
6205;SDS011;3136;48.788;9.772;2023-05-10T06:59:04;1.70;;;1.10;;
6205;SDS011;3136;48.788;9.772;2023-05-10T07:01:30;2.13;;;1.30;;
6205;SDS011;3136;48.788;9.772;2023-05-10T07:03:55;1.80;;;1.30;;
6205;SDS011;3136;48.788;9.772;2023-05-10T07:06:21;3.53;;;1.40;;
6205;SDS011;3136;48.788;9.772;2023-05-10T07:08:47;2.30;;;1.27;;
6205;SDS011;3136;48.788;9.772;2023-05-10T07:11:12;1.43;;;1.33;;
6205;SDS011;3136;48.788;9.772;2023-05-10T07:13:38;1.30;;;1.20;;
6205;SDS011;3136;48.788;9.772;2023-05-10T07:16:06;1.60;;;1.33;;
6205;SDS011;3136;48.788;9.772;2023-05-10T07:18:32;1.50;;;1.30;;
6205;SDS011;3136;48.788;9.772;2023-05-10T07:20:58;2.93;;;1.47;;
6205;SDS011;3136;48.788;9.772;2023-05-10T07:23:23;3.30;;;1.40;;
6205;SDS011;3136;48.788;9.772;2023-05-10T07:25:50;3.70;;;1.43;;
6205;SDS011;3136;48.788;9.772;2023-05-10T07:28:17;1.93;;;1.57;;
6205;SDS011;3136;48.788;9.772;2023-05-10T07:30:43;3.67;;;1.63;;
6205;SDS011;3136;48.788;9.772;2023-05-10T07:33:09;2.07;;;1.60;;
6205;SDS011;3136;48.788;9.772;2023-05-10T07:35:36;1.60;;;1.50;;
6205;SDS011;3136;48.788;9.772;2023-05-10T07:38:02;2.40;;;1.53;;
6205;SDS011;3136;48.788;9.772;2023-05-10T07:40:28;3.43;;;1.60;;
6205;SDS011;3136;48.788;9.772;2023-05-10T07:42:53;3.37;;;1.57;;
6205;SDS011;3136;48.788;9.772;2023-05-10T07:45:19;2.47;;;1.70;;
6205;SDS011;3136;48.788;9.772;2023-05-10T07:47:45;2.03;;;1.60;;
6205;SDS011;3136;48.788;9.772;2023-05-10T07:50:11;2.27;;;1.70;;
6205;SDS011;3136;48.788;9.772;2023-05-10T07:52:36;2.07;;;1.80;;
6205;SDS011;3136;48.788;9.772;2023-05-10T07:55:02;3.87;;;1.80;;
6205;SDS011;3136;48.788;9.772;2023-05-10T07:57:28;3.03;;;1.80;;
6205;SDS011;3136;48.788;9.772;2023-05-10T07:59:53;3.33;;;1.70;;
6205;SDS011;3136;48.788;9.772;2023-05-10T08:02:19;1.70;;;1.60;;
6205;SDS011;3136;48.788;9.772;2023-05-10T08:04:44;4.23;;;2.10;;
6205;SDS011;3136;48.788;9.772;2023-05-10T08:07:10;2.13;;;1.70;;
6205;SDS011;3136;48.788;9.772;2023-05-10T08:09:36;1.47;;;1.37;;
6205;SDS011;3136;48.788;9.772;2023-05-10T08:12:01;1.80;;;1.57;;
6205;SDS011;3136;48.788;9.772;2023-05-10T08:14:28;1.40;;;1.30;;
6205;SDS011;3136;48.788;9.772;2023-05-10T08:16:54;1.67;;;1.53;;
6205;SDS011;3136;48.788;9.772;2023-05-10T08:19:20;3.43;;;1.30;;
6205;SDS011;3136;48.788;9.772;2023-05-10T08:21:46;1.40;;;1.30;;
6205;SDS011;3136;48.788;9.772;2023-05-10T08:24:12;1.43;;;1.10;;
6205;SDS011;3136;48.788;9.772;2023-05-10T08:26:38;3.00;;;1.23;;
6205;SDS011;3136;48.788;9.772;2023-05-10T08:29:03;4.20;;;1.20;;
6205;SDS011;3136;48.788;9.772;2023-05-10T08:31:29;1.40;;;1.10;;
6205;SDS011;3136;48.788;9.772;2023-05-10T08:33:55;2.40;;;1.33;;
6205;SDS011;3136;48.788;9.772;2023-05-10T08:36:21;2.87;;;1.27;;
6205;SDS011;3136;48.788;9.772;2023-05-10T08:38:50;3.03;;;1.50;;
6205;SDS011;3136;48.788;9.772;2023-05-10T08:41:16;2.10;;;1.40;;
6205;SDS011;3136;48.788;9.772;2023-05-10T08:43:46;1.30;;;1.10;;
6205;SDS011;3136;48.788;9.772;2023-05-10T08:46:13;1.20;;;1.10;;
6205;SDS011;3136;48.788;9.772;2023-05-10T08:48:43;2.13;;;1.10;;
6205;SDS011;3136;48.788;9.772;2023-05-10T08:51:19;1.73;;;1.20;;
6205;SDS011;3136;48.788;9.772;2023-05-10T08:53:48;2.67;;;1.13;;
6205;SDS011;3136;48.788;9.772;2023-05-10T08:56:15;1.40;;;0.87;;
6205;SDS011;3136;48.788;9.772;2023-05-10T08:58:41;1.03;;;0.90;;
6205;SDS011;3136;48.788;9.772;2023-05-10T09:01:07;1.13;;;0.97;;
6205;SDS011;3136;48.788;9.772;2023-05-10T09:03:33;1.57;;;0.93;;
6205;SDS011;3136;48.788;9.772;2023-05-10T09:06:00;2.50;;;1.10;;
6205;SDS011;3136;48.788;9.772;2023-05-10T09:08:25;1.00;;;1.00;;
6205;SDS011;3136;48.788;9.772;2023-05-10T09:10:52;0.80;;;0.80;;
6205;SDS011;3136;48.788;9.772;2023-05-10T09:13:18;1.27;;;1.00;;
6205;SDS011;3136;48.788;9.772;2023-05-10T09:15:45;2.73;;;0.97;;
6205;SDS011;3136;48.788;9.772;2023-05-10T09:18:12;1.33;;;0.80;;
6205;SDS011;3136;48.788;9.772;2023-05-10T09:20:38;0.93;;;0.90;;
6205;SDS011;3136;48.788;9.772;2023-05-10T09:23:03;0.87;;;0.80;;
6205;SDS011;3136;48.788;9.772;2023-05-10T09:25:30;1.63;;;0.80;;
6205;SDS011;3136;48.788;9.772;2023-05-10T09:27:58;0.90;;;0.90;;
6205;SDS011;3136;48.788;9.772;2023-05-10T09:30:27;0.83;;;0.70;;
6205;SDS011;3136;48.788;9.772;2023-05-10T09:32:55;6.00;;;1.27;;
6205;SDS011;3136;48.788;9.772;2023-05-10T09:35:22;1.03;;;0.97;;
6205;SDS011;3136;48.788;9.772;2023-05-10T09:37:50;1.87;;;1.20;;
6205;SDS011;3136;48.788;9.772;2023-05-10T09:40:22;1.37;;;0.90;;
6205;SDS011;3136;48.788;9.772;2023-05-10T09:45:21;2.57;;;0.90;;
6205;SDS011;3136;48.788;9.772;2023-05-10T09:47:48;2.37;;;1.30;;
6205;SDS011;3136;48.788;9.772;2023-05-10T09:50:13;3.03;;;1.20;;
6205;SDS011;3136;48.788;9.772;2023-05-10T09:55:16;2.33;;;1.93;;
6205;SDS011;3136;48.788;9.772;2023-05-10T09:57:43;4.60;;;1.73;;
6205;SDS011;3136;48.788;9.772;2023-05-10T10:00:09;7.07;;;1.10;;
6205;SDS011;3136;48.788;9.772;2023-05-10T10:02:35;1.70;;;1.00;;
6205;SDS011;3136;48.788;9.772;2023-05-10T10:05:01;2.03;;;1.00;;
6205;SDS011;3136;48.788;9.772;2023-05-10T10:07:30;2.47;;;0.97;;
6205;SDS011;3136;48.788;9.772;2023-05-10T10:09:56;1.90;;;1.00;;
6205;SDS011;3136;48.788;9.772;2023-05-10T10:12:23;2.27;;;1.00;;
6205;SDS011;3136;48.788;9.772;2023-05-10T10:14:49;0.80;;;0.80;;
6205;SDS011;3136;48.788;9.772;2023-05-10T10:17:16;4.17;;;1.10;;
6205;SDS011;3136;48.788;9.772;2023-05-10T10:19:42;0.87;;;0.80;;
6205;SDS011;3136;48.788;9.772;2023-05-10T10:22:08;1.13;;;1.03;;
6205;SDS011;3136;48.788;9.772;2023-05-10T10:24:36;1.07;;;0.80;;
6205;SDS011;3136;48.788;9.772;2023-05-10T10:27:47;1.50;;;0.80;;
6205;SDS011;3136;48.788;9.772;2023-05-10T10:36:09;5.20;;;0.80;;
6205;SDS011;3136;48.788;9.772;2023-05-10T10:38:37;1.00;;;0.80;;
6205;SDS011;3136;48.788;9.772;2023-05-10T10:41:28;1.40;;;0.90;;
6205;SDS011;3136;48.788;9.772;2023-05-10T11:08:10;1.87;;;0.87;;
6205;SDS011;3136;48.788;9.772;2023-05-10T11:10:40;2.80;;;0.87;;
6205;SDS011;3136;48.788;9.772;2023-05-10T11:13:14;0.90;;;0.80;;
6205;SDS011;3136;48.788;9.772;2023-05-10T11:15:40;1.30;;;0.63;;
6205;SDS011;3136;48.788;9.772;2023-05-10T11:18:17;2.47;;;0.87;;
6205;SDS011;3136;48.788;9.772;2023-05-10T11:20:55;1.03;;;0.63;;
6205;SDS011;3136;48.788;9.772;2023-05-10T11:24:13;0.90;;;0.80;;
6205;SDS011;3136;48.788;9.772;2023-05-10T11:26:14;1.07;;;0.80;;
6205;SDS011;3136;48.788;9.772;2023-05-10T11:28:47;3.03;;;0.90;;
6205;SDS011;3136;48.788;9.772;2023-05-10T11:31:14;1.43;;;0.90;;
6205;SDS011;3136;48.788;9.772;2023-05-10T11:33:51;1.30;;;0.90;;
6205;SDS011;3136;48.788;9.772;2023-05-10T11:36:23;5.03;;;1.30;;
6205;SDS011;3136;48.788;9.772;2023-05-10T11:38:51;1.10;;;0.93;;
6205;SDS011;3136;48.788;9.772;2023-05-10T11:41:17;3.93;;;0.90;;
6205;SDS011;3136;48.788;9.772;2023-05-10T11:43:46;2.20;;;0.70;;
6205;SDS011;3136;48.788;9.772;2023-05-10T11:46:17;2.60;;;0.80;;
6205;SDS011;3136;48.788;9.772;2023-05-10T11:48:45;2.07;;;0.90;;
6205;SDS011;3136;48.788;9.772;2023-05-10T11:51:19;2.73;;;1.10;;
6205;SDS011;3136;48.788;9.772;2023-05-10T11:53:49;4.40;;;1.10;;
6205;SDS011;3136;48.788;9.772;2023-05-10T11:56:18;2.33;;;0.73;;
6205;SDS011;3136;48.788;9.772;2023-05-10T11:58:43;0.97;;;0.70;;
6205;SDS011;3136;48.788;9.772;2023-05-10T12:01:09;0.90;;;0.90;;
6205;SDS011;3136;48.788;9.772;2023-05-10T12:03:36;1.70;;;1.10;;
6205;SDS011;3136;48.788;9.772;2023-05-10T12:06:02;0.90;;;0.70;;
6205;SDS011;3136;48.788;9.772;2023-05-10T12:08:29;1.17;;;0.80;;
6205;SDS011;3136;48.788;9.772;2023-05-10T12:11:06;2.27;;;0.70;;
6205;SDS011;3136;48.788;9.772;2023-05-10T12:13:34;0.60;;;0.50;;
6205;SDS011;3136;48.788;9.772;2023-05-10T12:16:20;1.27;;;1.00;;
6205;SDS011;3136;48.788;9.772;2023-05-10T12:18:51;2.43;;;0.57;;
6205;SDS011;3136;48.788;9.772;2023-05-10T12:21:18;0.50;;;0.50;;
6205;SDS011;3136;48.788;9.772;2023-05-10T12:23:48;3.03;;;0.80;;
6205;SDS011;3136;48.788;9.772;2023-05-10T12:26:16;0.80;;;0.60;;
6205;SDS011;3136;48.788;9.772;2023-05-10T12:28:42;0.70;;;0.70;;
6205;SDS011;3136;48.788;9.772;2023-05-10T12:31:07;1.43;;;0.70;;
6205;SDS011;3136;48.788;9.772;2023-05-10T12:33:36;1.93;;;0.60;;
6205;SDS011;3136;48.788;9.772;2023-05-10T12:36:04;3.13;;;0.63;;
6205;SDS011;3136;48.788;9.772;2023-05-10T12:38:34;2.37;;;0.80;;
6205;SDS011;3136;48.788;9.772;2023-05-10T12:41:03;0.70;;;0.70;;
6205;SDS011;3136;48.788;9.772;2023-05-10T12:43:29;2.00;;;0.60;;
6205;SDS011;3136;48.788;9.772;2023-05-10T12:45:55;3.67;;;0.80;;
6205;SDS011;3136;48.788;9.772;2023-05-10T12:48:21;0.53;;;0.53;;
6205;SDS011;3136;48.788;9.772;2023-05-10T12:50:47;1.57;;;0.70;;
6205;SDS011;3136;48.788;9.772;2023-05-10T12:53:13;0.93;;;0.67;;
6205;SDS011;3136;48.788;9.772;2023-05-10T12:55:40;1.10;;;0.70;;
6205;SDS011;3136;48.788;9.772;2023-05-10T12:58:06;0.60;;;0.60;;
6205;SDS011;3136;48.788;9.772;2023-05-10T13:00:32;1.67;;;0.80;;
6205;SDS011;3136;48.788;9.772;2023-05-10T13:02:57;1.00;;;0.60;;
6205;SDS011;3136;48.788;9.772;2023-05-10T13:05:23;3.17;;;0.97;;
6205;SDS011;3136;48.788;9.772;2023-05-10T13:07:49;2.50;;;0.77;;
6205;SDS011;3136;48.788;9.772;2023-05-10T13:10:14;1.20;;;0.87;;
6205;SDS011;3136;48.788;9.772;2023-05-10T13:12:40;2.43;;;0.93;;
6205;SDS011;3136;48.788;9.772;2023-05-10T13:15:06;1.07;;;0.97;;
6205;SDS011;3136;48.788;9.772;2023-05-10T13:17:32;1.40;;;0.83;;
6205;SDS011;3136;48.788;9.772;2023-05-10T13:19:58;1.50;;;0.90;;
6205;SDS011;3136;48.788;9.772;2023-05-10T13:22:23;2.23;;;0.93;;
6205;SDS011;3136;48.788;9.772;2023-05-10T13:24:49;3.20;;;1.00;;
6205;SDS011;3136;48.788;9.772;2023-05-10T13:27:14;2.23;;;1.40;;
6205;SDS011;3136;48.788;9.772;2023-05-10T13:29:40;2.67;;;1.10;;
6205;SDS011;3136;48.788;9.772;2023-05-10T13:32:05;3.70;;;1.10;;
6205;SDS011;3136;48.788;9.772;2023-05-10T13:34:31;1.23;;;1.10;;
6205;SDS011;3136;48.788;9.772;2023-05-10T13:36:57;1.93;;;1.10;;
6205;SDS011;3136;48.788;9.772;2023-05-10T13:39:22;2.73;;;1.30;;
6205;SDS011;3136;48.788;9.772;2023-05-10T13:41:48;2.67;;;1.20;;
6205;SDS011;3136;48.788;9.772;2023-05-10T13:44:14;3.93;;;1.50;;
6205;SDS011;3136;48.788;9.772;2023-05-10T13:46:40;1.73;;;1.10;;
6205;SDS011;3136;48.788;9.772;2023-05-10T13:49:08;2.83;;;1.30;;
6205;SDS011;3136;48.788;9.772;2023-05-10T13:51:34;1.30;;;1.20;;
6205;SDS011;3136;48.788;9.772;2023-05-10T13:54:00;1.73;;;1.30;;
6205;SDS011;3136;48.788;9.772;2023-05-10T13:56:26;4.13;;;1.47;;
6205;SDS011;3136;48.788;9.772;2023-05-10T13:58:52;3.10;;;1.57;;
6205;SDS011;3136;48.788;9.772;2023-05-10T14:01:17;2.90;;;1.30;;
6205;SDS011;3136;48.788;9.772;2023-05-10T14:03:43;5.17;;;1.30;;
6205;SDS011;3136;48.788;9.772;2023-05-10T14:06:08;2.67;;;1.30;;
6205;SDS011;3136;48.788;9.772;2023-05-10T14:08:35;1.87;;;1.30;;
6205;SDS011;3136;48.788;9.772;2023-05-10T14:11:00;1.83;;;1.10;;
6205;SDS011;3136;48.788;9.772;2023-05-10T14:13:26;4.03;;;1.17;;
6205;SDS011;3136;48.788;9.772;2023-05-10T14:15:52;4.73;;;1.20;;
6205;SDS011;3136;48.788;9.772;2023-05-10T14:18:19;2.10;;;1.27;;
6205;SDS011;3136;48.788;9.772;2023-05-10T14:20:44;3.70;;;1.40;;
6205;SDS011;3136;48.788;9.772;2023-05-10T14:23:10;1.93;;;1.10;;
6205;SDS011;3136;48.788;9.772;2023-05-10T14:25:36;1.57;;;1.10;;
6205;SDS011;3136;48.788;9.772;2023-05-10T14:28:03;1.97;;;1.13;;
6205;SDS011;3136;48.788;9.772;2023-05-10T14:30:28;1.70;;;1.10;;
6205;SDS011;3136;48.788;9.772;2023-05-10T14:32:54;3.23;;;1.40;;
6205;SDS011;3136;48.788;9.772;2023-05-10T14:35:20;1.40;;;1.10;;
6205;SDS011;3136;48.788;9.772;2023-05-10T14:37:46;3.77;;;1.23;;
6205;SDS011;3136;48.788;9.772;2023-05-10T14:40:11;2.80;;;1.00;;
6205;SDS011;3136;48.788;9.772;2023-05-10T14:42:37;1.70;;;1.20;;
6205;SDS011;3136;48.788;9.772;2023-05-10T14:45:03;3.63;;;1.30;;
6205;SDS011;3136;48.788;9.772;2023-05-10T14:47:29;2.93;;;1.27;;
6205;SDS011;3136;48.788;9.772;2023-05-10T14:49:55;1.90;;;1.20;;
6205;SDS011;3136;48.788;9.772;2023-05-10T14:52:20;2.93;;;1.23;;
6205;SDS011;3136;48.788;9.772;2023-05-10T14:54:46;1.27;;;1.00;;
6205;SDS011;3136;48.788;9.772;2023-05-10T14:57:12;3.00;;;1.27;;
6205;SDS011;3136;48.788;9.772;2023-05-10T14:59:37;2.30;;;1.20;;
6205;SDS011;3136;48.788;9.772;2023-05-10T15:02:03;1.33;;;0.97;;
6205;SDS011;3136;48.788;9.772;2023-05-10T15:04:29;2.03;;;1.30;;
6205;SDS011;3136;48.788;9.772;2023-05-10T15:06:55;3.50;;;1.37;;
6205;SDS011;3136;48.788;9.772;2023-05-10T15:09:24;4.13;;;1.87;;
6205;SDS011;3136;48.788;9.772;2023-05-10T15:11:50;2.93;;;2.00;;
6205;SDS011;3136;48.788;9.772;2023-05-10T15:14:15;3.13;;;1.30;;
6205;SDS011;3136;48.788;9.772;2023-05-10T15:16:41;2.53;;;1.43;;
6205;SDS011;3136;48.788;9.772;2023-05-10T15:19:06;1.70;;;1.23;;
6205;SDS011;3136;48.788;9.772;2023-05-10T15:21:32;5.07;;;1.80;;
6205;SDS011;3136;48.788;9.772;2023-05-10T15:24:03;2.67;;;1.30;;
6205;SDS011;3136;48.788;9.772;2023-05-10T15:26:32;3.13;;;1.40;;
6205;SDS011;3136;48.788;9.772;2023-05-10T15:28:57;3.90;;;1.50;;
6205;SDS011;3136;48.788;9.772;2023-05-10T15:31:23;2.50;;;1.47;;
6205;SDS011;3136;48.788;9.772;2023-05-10T15:33:48;1.77;;;1.20;;
6205;SDS011;3136;48.788;9.772;2023-05-10T15:36:14;2.70;;;1.30;;
6205;SDS011;3136;48.788;9.772;2023-05-10T15:38:42;2.37;;;1.30;;
6205;SDS011;3136;48.788;9.772;2023-05-10T15:41:08;2.37;;;1.20;;
6205;SDS011;3136;48.788;9.772;2023-05-10T15:43:33;3.30;;;1.40;;
6205;SDS011;3136;48.788;9.772;2023-05-10T15:45:59;4.33;;;1.30;;
6205;SDS011;3136;48.788;9.772;2023-05-10T15:48:24;4.50;;;1.30;;
6205;SDS011;3136;48.788;9.772;2023-05-10T15:50:50;3.70;;;1.20;;
6205;SDS011;3136;48.788;9.772;2023-05-10T15:53:16;1.97;;;1.13;;
6205;SDS011;3136;48.788;9.772;2023-05-10T15:55:42;4.03;;;1.30;;
6205;SDS011;3136;48.788;9.772;2023-05-10T15:58:08;2.23;;;1.33;;
6205;SDS011;3136;48.788;9.772;2023-05-10T16:00:33;2.87;;;1.10;;
6205;SDS011;3136;48.788;9.772;2023-05-10T16:02:59;2.37;;;1.60;;
6205;SDS011;3136;48.788;9.772;2023-05-10T16:05:25;2.60;;;1.30;;